Time;durP1;ratioP1;P1;durP2;ratioP2;P2;SDS_P1;SDS_P2;PMS_P1;PMS_P2;Temp;Humidity;BMP_temperature;BMP_pressure;BME280_temperature;BME280_humidity;BME280_pressure;Samples;Min_cycle;Max_cycle;Signal;HPM_P1;HPM_P2
2021/10/20 00:02:02;;;;;;;0.10;0.10;;;;;;;;;;5002843;28;20276;-66
2021/10/20 00:04:28;;;;;;;0.10;0.10;;;;;;;;;;5002834;28;20207;-66
2021/10/20 00:06:55;;;;;;;0.10;0.10;;;;;;;;;;5002671;28;20203;-67
2021/10/20 00:09:22;;;;;;;0.10;0.10;;;;;;;;;;5002549;28;20241;-66
2021/10/20 00:11:48;;;;;;;0.30;0.30;;;;;;;;;;5002834;28;20249;-66
2021/10/20 00:14:15;;;;;;;0.00;0.00;;;;;;;;;;5002751;28;20249;-67
2021/10/20 00:16:41;;;;;;;0.10;0.10;;;;;;;;;;5002642;28;20272;-66
2021/10/20 00:19:08;;;;;;;0.10;0.10;;;;;;;;;;5004783;28;20273;-65
2021/10/20 00:21:35;;;;;;;0.10;0.10;;;;;;;;;;5006394;28;20210;-66
2021/10/20 00:24:01;;;;;;;0.10;0.10;;;;;;;;;;5006388;28;20491;-65
2021/10/20 00:26:29;;;;;;;0.10;0.10;;;;;;;;;;5006022;28;20296;-66
2021/10/20 00:28:55;;;;;;;0.10;0.10;;;;;;;;;;5006373;28;20202;-65
2021/10/20 00:31:21;;;;;;;0.10;0.10;;;;;;;;;;5005813;28;20304;-66
2021/10/20 00:33:48;;;;;;;0.10;0.10;;;;;;;;;;5006138;28;20252;-65
2021/10/20 00:36:14;;;;;;;0.00;0.00;;;;;;;;;;5006160;28;20415;-65
2021/10/20 00:38:40;;;;;;;0.10;0.10;;;;;;;;;;5005485;28;20233;-65
2021/10/20 00:41:06;;;;;;;0.10;0.10;;;;;;;;;;5005707;28;20281;-66
2021/10/20 00:43:34;;;;;;;0.10;0.10;;;;;;;;;;5005688;28;20209;-66
2021/10/20 00:46:00;;;;;;;0.10;0.10;;;;;;;;;;5005774;28;20215;-66
2021/10/20 00:48:26;;;;;;;0.10;0.10;;;;;;;;;;5005911;28;20206;-66
2021/10/20 00:50:53;;;;;;;0.10;0.10;;;;;;;;;;5005556;28;20210;-67
2021/10/20 00:53:19;;;;;;;0.10;0.10;;;;;;;;;;5005540;28;20262;-66
2021/10/20 00:55:45;;;;;;;0.10;0.10;;;;;;;;;;5005705;28;20212;-67
2021/10/20 00:58:12;;;;;;;0.10;0.10;;;;;;;;;;5005269;28;20267;-67
2021/10/20 01:00:39;;;;;;;0.10;0.10;;;;;;;;;;5005580;28;20209;-65
2021/10/20 01:03:08;;;;;;;0.10;0.10;;;;;;;;;;5005687;28;20430;-65
2021/10/20 01:05:35;;;;;;;0.10;0.10;;;;;;;;;;5005290;28;20209;-66
2021/10/20 01:08:01;;;;;;;0.10;0.10;;;;;;;;;;5005676;28;20466;-66
2021/10/20 01:10:27;;;;;;;0.10;0.10;;;;;;;;;;5005157;28;20209;-66
2021/10/20 01:12:53;;;;;;;0.10;0.10;;;;;;;;;;5005375;28;20256;-66
2021/10/20 01:15:21;;;;;;;0.10;0.10;;;;;;;;;;5005458;28;20296;-65
2021/10/20 01:17:49;;;;;;;0.10;0.10;;;;;;;;;;5005390;28;20287;-65
2021/10/20 01:20:15;;;;;;;0.10;0.10;;;;;;;;;;5005180;28;20416;-65
2021/10/20 01:22:43;;;;;;;0.10;0.10;;;;;;;;;;5005220;28;20365;-65
2021/10/20 01:25:10;;;;;;;0.10;0.10;;;;;;;;;;5001616;28;20210;-66
2021/10/20 01:27:36;;;;;;;0.10;0.10;;;;;;;;;;4988460;28;20217;-65
2021/10/20 01:30:05;;;;;;;0.10;0.10;;;;;;;;;;4995328;28;20233;-65
2021/10/20 01:32:31;;;;;;;0.10;0.10;;;;;;;;;;4993131;28;20257;-66
2021/10/20 01:34:57;;;;;;;0.10;0.10;;;;;;;;;;5004765;28;20426;-67
2021/10/20 01:37:25;;;;;;;0.10;0.10;;;;;;;;;;5005064;28;20209;-66
2021/10/20 01:39:56;;;;;;;0.10;0.10;;;;;;;;;;5004610;28;20240;-66
2021/10/20 01:42:22;;;;;;;0.10;0.10;;;;;;;;;;4990911;28;20447;-66
2021/10/20 01:44:49;;;;;;;0.07;0.07;;;;;;;;;;4993993;28;20261;-66
2021/10/20 01:47:15;;;;;;;0.10;0.10;;;;;;;;;;4985297;28;20207;-66
2021/10/20 01:49:41;;;;;;;0.10;0.10;;;;;;;;;;4985275;28;20247;-65
2021/10/20 01:52:07;;;;;;;0.10;0.10;;;;;;;;;;4985145;28;20218;-66
2021/10/20 01:54:36;;;;;;;0.10;0.10;;;;;;;;;;4992333;28;20215;-66
2021/10/20 01:57:04;;;;;;;0.10;0.10;;;;;;;;;;4991141;28;20221;-66
2021/10/20 01:59:30;;;;;;;0.03;0.03;;;;;;;;;;4990266;28;20327;-65
2021/10/20 02:01:56;;;;;;;0.10;0.10;;;;;;;;;;5000314;28;20213;-66
2021/10/20 02:04:23;;;;;;;0.10;0.10;;;;;;;;;;4992212;28;20206;-65
2021/10/20 02:06:49;;;;;;;0.10;0.10;;;;;;;;;;4994760;28;20279;-66
2021/10/20 02:09:15;;;;;;;0.10;0.10;;;;;;;;;;4991996;28;20379;-65
2021/10/20 02:11:42;;;;;;;0.10;0.10;;;;;;;;;;4996717;28;20208;-66
2021/10/20 02:14:10;;;;;;;0.10;0.10;;;;;;;;;;5005483;28;20213;-66
2021/10/20 02:16:36;;;;;;;0.10;0.10;;;;;;;;;;5017602;28;20215;-66
2021/10/20 02:19:03;;;;;;;0.10;0.10;;;;;;;;;;5004016;28;20230;-65
2021/10/20 02:21:29;;;;;;;0.10;0.10;;;;;;;;;;5006710;28;20517;-65
2021/10/20 02:23:55;;;;;;;0.10;0.10;;;;;;;;;;5010353;28;20214;-65
2021/10/20 02:26:21;;;;;;;0.10;0.10;;;;;;;;;;5001195;28;20209;-65
2021/10/20 02:28:48;;;;;;;0.10;0.10;;;;;;;;;;5003978;28;20262;-66
2021/10/20 02:31:15;;;;;;;0.10;0.10;;;;;;;;;;5001308;28;20520;-65
2021/10/20 02:33:41;;;;;;;0.00;0.00;;;;;;;;;;4990106;28;20275;-65
2021/10/20 02:36:08;;;;;;;0.10;0.10;;;;;;;;;;4992148;28;20245;-67
2021/10/20 02:38:34;;;;;;;0.10;0.10;;;;;;;;;;4997831;28;20202;-65
2021/10/20 02:41:00;;;;;;;0.10;0.10;;;;;;;;;;4994484;28;20206;-66
2021/10/20 02:43:27;;;;;;;0.10;0.10;;;;;;;;;;5001589;28;20430;-66
2021/10/20 02:45:53;;;;;;;0.10;0.10;;;;;;;;;;4992582;28;20424;-67
2021/10/20 02:48:20;;;;;;;0.10;0.10;;;;;;;;;;4989181;28;20209;-66
2021/10/20 02:50:47;;;;;;;0.10;0.10;;;;;;;;;;4984062;28;20218;-66
2021/10/20 02:53:13;;;;;;;0.10;0.10;;;;;;;;;;4984278;28;20214;-66
2021/10/20 02:55:40;;;;;;;0.10;0.10;;;;;;;;;;4984261;28;20270;-66
2021/10/20 02:58:06;;;;;;;0.10;0.10;;;;;;;;;;4984248;28;20392;-67
2021/10/20 03:00:32;;;;;;;0.10;0.10;;;;;;;;;;4997808;28;20419;-66
2021/10/20 03:02:58;;;;;;;0.10;0.10;;;;;;;;;;4983784;28;20206;-67
2021/10/20 03:05:26;;;;;;;0.10;0.10;;;;;;;;;;4984017;28;20210;-67
2021/10/20 03:07:54;;;;;;;0.10;0.10;;;;;;;;;;4984119;28;20500;-67
2021/10/20 03:10:20;;;;;;;0.10;0.10;;;;;;;;;;4983737;28;20216;-66
2021/10/20 03:12:46;;;;;;;0.10;0.10;;;;;;;;;;4983946;28;20206;-65
2021/10/20 03:15:13;;;;;;;0.10;0.10;;;;;;;;;;4983960;28;20210;-65
2021/10/20 03:17:39;;;;;;;0.10;0.10;;;;;;;;;;4997403;28;20423;-66
2021/10/20 03:20:08;;;;;;;0.10;0.10;;;;;;;;;;4993581;28;20222;-66
2021/10/20 03:22:36;;;;;;;0.10;0.10;;;;;;;;;;5001076;28;20484;-66
2021/10/20 03:25:03;;;;;;;0.10;0.10;;;;;;;;;;4992180;28;20261;-66
2021/10/20 03:27:29;;;;;;;0.10;0.10;;;;;;;;;;5003292;28;20256;-66
2021/10/20 03:29:55;;;;;;;0.10;0.10;;;;;;;;;;5000700;28;20292;-66
2021/10/20 03:32:21;;;;;;;0.10;0.10;;;;;;;;;;4983513;28;20245;-66
2021/10/20 03:34:47;;;;;;;0.10;0.10;;;;;;;;;;4997456;28;20213;-66
2021/10/20 03:37:14;;;;;;;0.10;0.10;;;;;;;;;;4990815;28;20500;-66
2021/10/20 03:39:41;;;;;;;0.10;0.10;;;;;;;;;;5002902;28;20322;-65
2021/10/20 03:42:09;;;;;;;0.33;0.33;;;;;;;;;;4984213;28;20210;-66
2021/10/20 03:44:35;;;;;;;0.73;0.73;;;;;;;;;;4983513;28;20206;-66
2021/10/20 03:47:02;;;;;;;0.10;0.10;;;;;;;;;;4997277;28;20209;-66
2021/10/20 03:49:28;;;;;;;0.10;0.10;;;;;;;;;;4983648;28;20250;-67
2021/10/20 03:51:54;;;;;;;0.00;0.00;;;;;;;;;;4983368;28;20534;-66
2021/10/20 03:54:20;;;;;;;0.37;0.37;;;;;;;;;;4985883;28;20250;-65
2021/10/20 03:56:48;;;;;;;0.10;0.10;;;;;;;;;;4987320;28;20523;-67
2021/10/20 03:59:14;;;;;;;0.10;0.10;;;;;;;;;;4987037;28;20241;-66
2021/10/20 04:01:40;;;;;;;0.10;0.10;;;;;;;;;;4986973;28;20556;-67
2021/10/20 04:04:06;;;;;;;0.10;0.10;;;;;;;;;;4991100;28;20203;-68
2021/10/20 04:06:33;;;;;;;0.10;0.10;;;;;;;;;;5006757;28;20268;-66
2021/10/20 04:08:59;;;;;;;0.10;0.10;;;;;;;;;;4990236;28;20255;-65
2021/10/20 04:11:25;;;;;;;0.00;0.00;;;;;;;;;;4987256;28;20494;-66
2021/10/20 04:13:53;;;;;;;0.10;0.10;;;;;;;;;;5000278;28;20208;-67
2021/10/20 04:16:19;;;;;;;0.10;0.10;;;;;;;;;;4993508;28;20216;-66
2021/10/20 04:18:45;;;;;;;0.10;0.10;;;;;;;;;;5006526;28;20206;-67
2021/10/20 04:21:11;;;;;;;0.10;0.10;;;;;;;;;;4987350;28;20421;-66
2021/10/20 04:23:38;;;;;;;0.00;0.00;;;;;;;;;;4987002;28;20497;-66
2021/10/20 04:26:04;;;;;;;0.10;0.10;;;;;;;;;;4986597;28;20203;-66
2021/10/20 04:28:30;;;;;;;0.10;0.10;;;;;;;;;;4986912;28;20209;-65
2021/10/20 04:30:58;;;;;;;0.10;0.10;;;;;;;;;;4986511;28;20292;-67
2021/10/20 04:33:24;;;;;;;0.10;0.10;;;;;;;;;;4986499;28;20215;-67
2021/10/20 04:35:50;;;;;;;0.10;0.10;;;;;;;;;;4996162;28;20237;-67
2021/10/20 04:38:17;;;;;;;0.53;0.53;;;;;;;;;;5006110;28;20212;-67
2021/10/20 04:40:43;;;;;;;0.10;0.10;;;;;;;;;;4980931;28;20237;-66
2021/10/20 04:43:09;;;;;;;0.10;0.10;;;;;;;;;;4999941;28;20216;-65
2021/10/20 04:45:36;;;;;;;0.10;0.10;;;;;;;;;;4986559;28;20202;-67
2021/10/20 04:48:04;;;;;;;0.10;0.10;;;;;;;;;;4986557;28;20409;-67
2021/10/20 04:50:33;;;;;;;0.03;0.03;;;;;;;;;;4986535;28;20208;-66
2021/10/20 04:52:59;;;;;;;0.07;0.07;;;;;;;;;;4997048;28;20425;-67
2021/10/20 04:55:25;;;;;;;0.10;0.10;;;;;;;;;;4989043;28;20247;-66
2021/10/20 04:57:53;;;;;;;0.10;0.10;;;;;;;;;;4986474;28;20205;-67
2021/10/20 05:00:20;;;;;;;0.10;0.10;;;;;;;;;;5000858;28;20255;-65
2021/10/20 05:02:47;;;;;;;0.10;0.10;;;;;;;;;;5005435;28;20565;-66
2021/10/20 05:05:15;;;;;;;0.10;0.10;;;;;;;;;;4990964;28;20212;-66
2021/10/20 05:07:48;;;;;;;0.10;0.10;;;;;;;;;;4991510;28;20227;-66
2021/10/20 05:10:14;;;;;;;0.10;0.10;;;;;;;;;;5000829;28;20209;-66
2021/10/20 05:12:40;;;;;;;0.10;0.10;;;;;;;;;;4996384;28;20383;-66
2021/10/20 05:15:07;;;;;;;0.10;0.10;;;;;;;;;;5003717;28;20269;-66
2021/10/20 05:17:33;;;;;;;0.10;0.10;;;;;;;;;;4985492;28;20206;-66
2021/10/20 05:19:59;;;;;;;0.10;0.10;;;;;;;;;;4985865;28;20229;-67
2021/10/20 05:22:27;;;;;;;0.10;0.10;;;;;;;;;;5000427;28;20232;-65
2021/10/20 05:24:53;;;;;;;0.10;0.10;;;;;;;;;;4998153;28;20209;-66
2021/10/20 05:27:19;;;;;;;0.10;0.10;;;;;;;;;;4985850;28;20407;-66
2021/10/20 05:29:46;;;;;;;1.40;0.67;;;;;;;;;;4990316;28;20256;-66
2021/10/20 05:32:12;;;;;;;0.10;0.10;;;;;;;;;;4997583;28;20206;-65
2021/10/20 05:34:38;;;;;;;0.10;0.10;;;;;;;;;;4999078;28;20213;-65
2021/10/20 05:37:04;;;;;;;0.10;0.10;;;;;;;;;;4985553;28;20210;-66
2021/10/20 05:39:32;;;;;;;0.10;0.10;;;;;;;;;;4985038;28;20299;-66
2021/10/20 05:41:58;;;;;;;0.10;0.10;;;;;;;;;;4985614;28;20481;-65
2021/10/20 05:44:24;;;;;;;0.10;0.10;;;;;;;;;;4985439;28;20257;-65
2021/10/20 05:46:50;;;;;;;0.10;0.10;;;;;;;;;;4987507;28;20254;-66
2021/10/20 05:49:17;;;;;;;0.10;0.10;;;;;;;;;;5004821;28;20212;-65
2021/10/20 05:51:43;;;;;;;0.10;0.10;;;;;;;;;;5004758;28;20454;-66
2021/10/20 05:54:09;;;;;;;0.10;0.10;;;;;;;;;;5004489;28;20244;-66
2021/10/20 05:56:37;;;;;;;0.10;0.10;;;;;;;;;;5004721;28;20263;-66
2021/10/20 05:59:04;;;;;;;0.10;0.10;;;;;;;;;;5018026;28;20213;-67
2021/10/20 06:01:30;;;;;;;0.10;0.10;;;;;;;;;;5003748;28;20275;-67
2021/10/20 06:03:57;;;;;;;0.10;0.10;;;;;;;;;;5003499;28;20280;-66
2021/10/20 06:06:23;;;;;;;0.10;0.10;;;;;;;;;;4997076;28;20266;-66
2021/10/20 06:08:49;;;;;;;0.10;0.10;;;;;;;;;;4994836;28;20490;-66
2021/10/20 06:11:17;;;;;;;0.10;0.10;;;;;;;;;;4996655;28;20209;-67
2021/10/20 06:13:44;;;;;;;0.10;0.10;;;;;;;;;;4991387;28;20452;-67
2021/10/20 06:16:11;;;;;;;0.10;0.10;;;;;;;;;;5000208;28;20217;-65
2021/10/20 06:18:38;;;;;;;0.10;0.10;;;;;;;;;;4991164;28;20285;-66
2021/10/20 06:21:04;;;;;;;0.10;0.10;;;;;;;;;;4995586;28;20217;-66
2021/10/20 06:23:31;;;;;;;0.10;0.10;;;;;;;;;;5002014;28;20259;-66
2021/10/20 06:25:57;;;;;;;0.10;0.10;;;;;;;;;;4992522;28;20214;-66
2021/10/20 06:28:24;;;;;;;0.00;0.00;;;;;;;;;;4997862;28;20433;-66
2021/10/20 06:30:51;;;;;;;0.10;0.10;;;;;;;;;;4992867;28;20303;-66
2021/10/20 06:33:18;;;;;;;0.10;0.10;;;;;;;;;;5002205;28;20256;-66
2021/10/20 06:35:44;;;;;;;0.10;0.10;;;;;;;;;;4991984;28;20206;-67
2021/10/20 06:38:10;;;;;;;1.40;1.40;;;;;;;;;;4997785;28;20497;-65
2021/10/20 06:40:36;;;;;;;0.10;0.10;;;;;;;;;;4991900;28;20268;-66
2021/10/20 06:43:02;;;;;;;0.10;0.10;;;;;;;;;;4992315;28;20214;-66
2021/10/20 06:45:29;;;;;;;0.10;0.10;;;;;;;;;;4987362;28;20205;-65
2021/10/20 06:47:56;;;;;;;0.10;0.10;;;;;;;;;;4990813;28;20322;-65
2021/10/20 06:50:23;;;;;;;0.10;0.10;;;;;;;;;;4988960;28;20223;-65
2021/10/20 06:52:49;;;;;;;0.10;0.10;;;;;;;;;;4993045;28;20205;-68
2021/10/20 06:55:15;;;;;;;0.10;0.10;;;;;;;;;;4989708;28;20248;-66
2021/10/20 06:57:41;;;;;;;0.10;0.10;;;;;;;;;;5005999;28;20257;-65
2021/10/20 07:00:09;;;;;;;0.10;0.10;;;;;;;;;;4998694;28;20221;-66
2021/10/20 07:02:36;;;;;;;0.10;0.10;;;;;;;;;;5003095;28;20305;-64
2021/10/20 07:05:04;;;;;;;0.10;0.10;;;;;;;;;;4990584;28;20389;-65
2021/10/20 07:07:30;;;;;;;0.10;0.10;;;;;;;;;;4994742;28;20212;-65
2021/10/20 07:09:56;;;;;;;0.10;0.10;;;;;;;;;;5000118;28;20217;-65
2021/10/20 07:12:23;;;;;;;0.10;0.10;;;;;;;;;;4987742;28;20275;-66
2021/10/20 07:14:49;;;;;;;0.10;0.10;;;;;;;;;;4993707;28;20211;-66
2021/10/20 07:17:15;;;;;;;0.10;0.10;;;;;;;;;;4983981;28;20207;-65
2021/10/20 07:19:41;;;;;;;0.10;0.10;;;;;;;;;;4984134;28;20208;-65
2021/10/20 07:22:09;;;;;;;0.10;0.10;;;;;;;;;;4984071;28;20420;-64
2021/10/20 07:24:36;;;;;;;0.00;0.00;;;;;;;;;;4989893;28;20206;-65
2021/10/20 07:27:03;;;;;;;0.10;0.10;;;;;;;;;;4991345;28;20209;-65
2021/10/20 07:29:30;;;;;;;0.27;0.27;;;;;;;;;;4986693;28;20202;-65
2021/10/20 07:31:56;;;;;;;0.20;0.20;;;;;;;;;;4998429;28;20213;-64
2021/10/20 07:34:22;;;;;;;0.10;0.10;;;;;;;;;;4996043;28;20206;-73
2021/10/20 07:36:50;;;;;;;0.10;0.10;;;;;;;;;;4990961;28;20486;-73
2021/10/20 07:39:18;;;;;;;0.10;0.10;;;;;;;;;;5007027;28;20221;-65
2021/10/20 07:41:44;;;;;;;0.10;0.10;;;;;;;;;;5007159;28;20229;-65
2021/10/20 07:44:11;;;;;;;0.10;0.10;;;;;;;;;;5007177;28;20245;-65
2021/10/20 07:46:37;;;;;;;0.00;0.00;;;;;;;;;;4997351;28;20211;-66
2021/10/20 07:49:04;;;;;;;0.10;0.10;;;;;;;;;;4993559;28;20314;-66
2021/10/20 07:51:30;;;;;;;0.10;0.10;;;;;;;;;;4997851;28;20533;-67
2021/10/20 07:53:56;;;;;;;0.10;0.10;;;;;;;;;;5015867;28;20203;-67
2021/10/20 07:56:31;;;;;;;0.10;0.10;;;;;;;;;;5005774;28;20258;-64
2021/10/20 07:58:58;;;;;;;0.10;0.10;;;;;;;;;;5006769;28;20226;-65
2021/10/20 08:01:24;;;;;;;0.10;0.10;;;;;;;;;;5009402;28;20242;-67
2021/10/20 08:03:56;;;;;;;7.47;6.87;;;;;;;;;;4995881;28;20211;-71
2021/10/20 08:06:23;;;;;;;0.00;0.00;;;;;;;;;;5018314;28;20212;-66
2021/10/20 08:08:49;;;;;;;0.00;0.00;;;;;;;;;;5006795;28;20218;-73
2021/10/20 08:11:15;;;;;;;0.10;0.10;;;;;;;;;;5000434;28;20203;-74
2021/10/20 08:13:43;;;;;;;0.10;0.10;;;;;;;;;;4993013;28;20246;-74
2021/10/20 08:16:09;;;;;;;0.10;0.10;;;;;;;;;;4987063;28;20223;-75
2021/10/20 08:18:35;;;;;;;0.10;0.10;;;;;;;;;;4999225;28;20395;-74
2021/10/20 08:21:02;;;;;;;0.10;0.10;;;;;;;;;;4992640;28;20457;-73
2021/10/20 08:23:29;;;;;;;0.10;0.10;;;;;;;;;;5005539;28;20405;-74
2021/10/20 08:25:55;;;;;;;0.03;0.03;;;;;;;;;;5007959;28;20209;-74
2021/10/20 08:28:22;;;;;;;0.10;0.10;;;;;;;;;;5017043;28;20205;-75
2021/10/20 08:30:49;;;;;;;0.00;0.00;;;;;;;;;;4992200;28;20250;-73
2021/10/20 08:33:16;;;;;;;0.10;0.10;;;;;;;;;;5003671;28;20234;-73
2021/10/20 08:35:42;;;;;;;0.10;0.10;;;;;;;;;;4986852;28;20247;-74
2021/10/20 08:38:08;;;;;;;0.10;0.10;;;;;;;;;;4986942;28;20252;-71
2021/10/20 08:40:36;;;;;;;0.10;0.10;;;;;;;;;;5005895;28;20242;-73
2021/10/20 08:43:03;;;;;;;0.00;0.00;;;;;;;;;;4993453;28;20302;-72
2021/10/20 08:45:30;;;;;;;0.10;0.10;;;;;;;;;;4986572;28;20204;-72
2021/10/20 08:47:58;;;;;;;0.10;0.10;;;;;;;;;;4991412;28;20213;-72
2021/10/20 08:50:25;;;;;;;0.10;0.10;;;;;;;;;;4990740;28;20248;-72
2021/10/20 08:52:52;;;;;;;0.00;0.00;;;;;;;;;;4989028;28;20199;-73
2021/10/20 08:55:19;;;;;;;0.10;0.10;;;;;;;;;;4995937;28;20213;-73
2021/10/20 08:57:45;;;;;;;4.27;4.07;;;;;;;;;;5005831;28;20204;-73
2021/10/20 09:00:12;;;;;;;0.00;0.00;;;;;;;;;;5006015;28;20211;-73
2021/10/20 09:02:40;;;;;;;0.00;0.00;;;;;;;;;;5007691;28;20428;-74
2021/10/20 09:05:09;;;;;;;0.50;0.50;;;;;;;;;;5001287;28;20272;-74
2021/10/20 09:07:37;;;;;;;0.10;0.10;;;;;;;;;;4991141;28;20331;-74
2021/10/20 09:10:03;;;;;;;0.10;0.10;;;;;;;;;;5010974;28;20214;-73
2021/10/20 09:12:37;;;;;;;0.00;0.00;;;;;;;;;;4995129;28;20201;-73
2021/10/20 09:15:03;;;;;;;0.10;0.10;;;;;;;;;;5005686;28;20204;-72
2021/10/20 09:17:42;;;;;;;0.10;0.10;;;;;;;;;;5005619;28;20429;-73
2021/10/20 09:20:16;;;;;;;0.00;0.00;;;;;;;;;;5005614;28;20563;-74
2021/10/20 09:22:53;;;;;;;0.00;0.00;;;;;;;;;;5005811;28;20219;-73
2021/10/20 09:25:19;;;;;;;0.00;0.00;;;;;;;;;;4988963;28;20213;-73
2021/10/20 09:27:46;;;;;;;0.10;0.10;;;;;;;;;;4993863;28;20208;-74
2021/10/20 09:30:13;;;;;;;0.10;0.10;;;;;;;;;;4998507;28;20585;-73
2021/10/20 09:32:39;;;;;;;0.07;0.07;;;;;;;;;;5000512;28;20276;-73
2021/10/20 09:35:06;;;;;;;0.03;0.03;;;;;;;;;;5005062;28;20203;-73
2021/10/20 09:37:34;;;;;;;0.40;0.40;;;;;;;;;;4998060;28;20214;-72
2021/10/20 09:40:03;;;;;;;0.00;0.00;;;;;;;;;;5003332;28;20456;-73
2021/10/20 09:42:30;;;;;;;0.10;0.10;;;;;;;;;;4991927;28;20278;-73
2021/10/20 09:44:57;;;;;;;0.10;0.10;;;;;;;;;;4986807;28;20246;-70
2021/10/20 09:47:25;;;;;;;0.10;0.10;;;;;;;;;;4992456;28;20215;-70
2021/10/20 09:49:54;;;;;;;0.10;0.10;;;;;;;;;;5004891;28;20221;-70
2021/10/20 09:52:22;;;;;;;0.23;0.23;;;;;;;;;;4991831;28;20273;-70
2021/10/20 09:54:50;;;;;;;0.10;0.10;;;;;;;;;;5005768;28;20209;-71
2021/10/20 09:57:16;;;;;;;0.10;0.10;;;;;;;;;;5018593;28;20267;-71
2021/10/20 09:59:43;;;;;;;0.10;0.10;;;;;;;;;;4996148;28;20213;-69
2021/10/20 10:02:10;;;;;;;0.10;0.10;;;;;;;;;;4987261;28;20381;-70
2021/10/20 10:04:37;;;;;;;0.10;0.10;;;;;;;;;;5004309;28;20221;-70
2021/10/20 10:07:03;;;;;;;0.00;0.00;;;;;;;;;;5001909;28;20233;-70
2021/10/20 10:09:30;;;;;;;1.80;1.70;;;;;;;;;;4991791;28;20224;-70
2021/10/20 10:11:59;;;;;;;0.10;0.10;;;;;;;;;;5004286;28;20266;-70
2021/10/20 10:14:26;;;;;;;0.03;0.03;;;;;;;;;;5003961;28;20379;-70
2021/10/20 10:16:59;;;;;;;0.00;0.00;;;;;;;;;;4994088;28;20208;-72
2021/10/20 10:19:26;;;;;;;0.10;0.10;;;;;;;;;;4988141;28;20880;-71
2021/10/20 10:21:53;;;;;;;0.10;0.10;;;;;;;;;;4993647;28;20231;-70
2021/10/20 10:24:20;;;;;;;0.70;0.70;;;;;;;;;;4994476;28;20252;-70
2021/10/20 10:27:01;;;;;;;0.00;0.00;;;;;;;;;;4993590;28;20229;-70
2021/10/20 10:29:27;;;;;;;0.00;0.00;;;;;;;;;;4997954;28;20216;-69
2021/10/20 10:31:54;;;;;;;0.10;0.10;;;;;;;;;;4996190;28;20196;-70
2021/10/20 10:34:25;;;;;;;0.10;0.10;;;;;;;;;;5003721;28;20418;-71
2021/10/20 10:36:52;;;;;;;0.10;0.10;;;;;;;;;;4993678;28;20270;-69
2021/10/20 10:39:20;;;;;;;0.10;0.10;;;;;;;;;;4991376;28;20214;-70
2021/10/20 10:41:48;;;;;;;0.30;0.30;;;;;;;;;;4991529;28;20224;-70
2021/10/20 10:44:17;;;;;;;0.10;0.10;;;;;;;;;;4986837;28;20231;-70
2021/10/20 10:46:54;;;;;;;0.10;0.10;;;;;;;;;;4998693;28;20277;-70
2021/10/20 10:49:24;;;;;;;0.10;0.10;;;;;;;;;;4993265;28;20228;-70
2021/10/20 10:52:07;;;;;;;0.10;0.10;;;;;;;;;;4994219;28;20301;-69
2021/10/20 10:54:35;;;;;;;0.10;0.10;;;;;;;;;;4995799;28;20220;-71
2021/10/20 10:57:10;;;;;;;0.10;0.10;;;;;;;;;;4995376;28;20241;-70
2021/10/20 10:59:37;;;;;;;0.10;0.10;;;;;;;;;;4991477;28;20454;-70
2021/10/20 11:02:04;;;;;;;0.10;0.10;;;;;;;;;;4991074;28;20289;-69
2021/10/20 11:04:34;;;;;;;0.10;0.10;;;;;;;;;;4991905;28;20336;-70
2021/10/20 11:07:01;;;;;;;0.10;0.10;;;;;;;;;;4991566;28;20387;-70
2021/10/20 11:09:31;;;;;;;0.07;0.07;;;;;;;;;;4995373;28;20257;-71
2021/10/20 11:11:58;;;;;;;0.00;0.00;;;;;;;;;;4998938;28;20230;-71
2021/10/20 11:14:28;;;;;;;0.10;0.10;;;;;;;;;;4993283;28;20203;-71
2021/10/20 11:16:58;;;;;;;0.10;0.10;;;;;;;;;;4992476;28;20500;-70
2021/10/20 11:19:24;;;;;;;0.10;0.10;;;;;;;;;;4988145;28;20385;-70
2021/10/20 11:21:51;;;;;;;0.10;0.10;;;;;;;;;;4991025;28;20214;-70
2021/10/20 11:24:17;;;;;;;0.10;0.10;;;;;;;;;;4994479;28;20207;-71
2021/10/20 11:26:46;;;;;;;0.10;0.10;;;;;;;;;;5000256;28;20207;-70
2021/10/20 11:29:13;;;;;;;0.10;0.10;;;;;;;;;;4996880;28;20207;-70
2021/10/20 11:31:40;;;;;;;0.10;0.10;;;;;;;;;;4996448;28;20226;-69
2021/10/20 11:34:17;;;;;;;0.10;0.10;;;;;;;;;;4992350;28;20217;-71
2021/10/20 11:36:44;;;;;;;0.07;0.07;;;;;;;;;;4993146;28;20268;-70
2021/10/20 11:39:10;;;;;;;0.03;0.03;;;;;;;;;;4999679;28;20209;-72
2021/10/20 11:41:36;;;;;;;0.10;0.10;;;;;;;;;;4988197;28;20228;-72
2021/10/20 11:44:03;;;;;;;0.10;0.10;;;;;;;;;;4988066;28;20522;-71
2021/10/20 11:46:31;;;;;;;0.10;0.10;;;;;;;;;;4990088;28;20241;-73
2021/10/20 11:48:58;;;;;;;0.03;0.03;;;;;;;;;;4994236;28;20266;-73
2021/10/20 11:51:26;;;;;;;0.10;0.10;;;;;;;;;;4995997;28;20211;-72
2021/10/20 11:53:52;;;;;;;0.10;0.10;;;;;;;;;;4993877;28;20221;-71
2021/10/20 11:56:18;;;;;;;0.10;0.10;;;;;;;;;;4996048;28;20212;-70
2021/10/20 11:58:46;;;;;;;0.10;0.10;;;;;;;;;;4987489;28;20412;-70
2021/10/20 12:01:13;;;;;;;0.10;0.10;;;;;;;;;;5003054;28;20206;-71
2021/10/20 12:03:40;;;;;;;0.07;0.07;;;;;;;;;;5007662;28;20240;-71
2021/10/20 12:06:08;;;;;;;0.10;0.10;;;;;;;;;;4995819;28;20213;-69
2021/10/20 12:08:36;;;;;;;0.00;0.00;;;;;;;;;;5003118;28;20216;-70
2021/10/20 12:11:02;;;;;;;0.10;0.10;;;;;;;;;;5000751;28;20223;-70
2021/10/20 12:13:29;;;;;;;0.10;0.10;;;;;;;;;;4985709;28;20206;-71
2021/10/20 12:15:56;;;;;;;0.10;0.10;;;;;;;;;;5003739;28;20211;-71
2021/10/20 12:18:24;;;;;;;0.10;0.10;;;;;;;;;;5006578;28;20326;-70
2021/10/20 12:20:53;;;;;;;0.10;0.10;;;;;;;;;;5005726;28;20211;-71
2021/10/20 12:23:19;;;;;;;0.10;0.10;;;;;;;;;;4992365;28;20225;-72
2021/10/20 12:25:47;;;;;;;0.03;0.03;;;;;;;;;;4999117;28;20507;-74
2021/10/20 12:28:13;;;;;;;0.10;0.10;;;;;;;;;;5003713;28;20220;-71
2021/10/20 12:30:40;;;;;;;0.10;0.10;;;;;;;;;;5006071;28;20301;-72
2021/10/20 12:33:08;;;;;;;0.00;0.00;;;;;;;;;;4991545;28;20209;-70
2021/10/20 12:35:34;;;;;;;0.60;0.60;;;;;;;;;;4992235;28;20280;-71
2021/10/20 12:38:02;;;;;;;0.10;0.10;;;;;;;;;;4994218;28;20215;-71
2021/10/20 12:40:29;;;;;;;0.10;0.10;;;;;;;;;;4999930;28;20286;-72
2021/10/20 12:42:58;;;;;;;0.10;0.10;;;;;;;;;;5006987;28;20228;-73
2021/10/20 12:45:25;;;;;;;0.00;0.00;;;;;;;;;;4995265;28;20214;-72
2021/10/20 12:47:53;;;;;;;0.10;0.10;;;;;;;;;;5002723;28;20349;-70
2021/10/20 12:50:20;;;;;;;0.10;0.10;;;;;;;;;;5018041;28;20213;-71
2021/10/20 12:52:47;;;;;;;0.10;0.10;;;;;;;;;;4992396;28;20364;-72
2021/10/20 12:55:15;;;;;;;1.60;1.60;;;;;;;;;;4992565;28;20407;-72
2021/10/20 12:57:43;;;;;;;0.40;0.40;;;;;;;;;;4993659;28;20511;-73
2021/10/20 13:00:12;;;;;;;0.05;0.05;;;;;;;;;;4985955;28;20208;-71
2021/10/20 13:02:38;;;;;;;0.03;0.03;;;;;;;;;;4996702;28;20236;-73
2021/10/20 13:05:05;;;;;;;0.00;0.00;;;;;;;;;;5005760;28;20208;-70
2021/10/20 13:07:31;;;;;;;0.10;0.10;;;;;;;;;;5004003;28;20206;-71
2021/10/20 13:09:57;;;;;;;0.00;0.00;;;;;;;;;;4990752;28;20210;-71
2021/10/20 13:12:24;;;;;;;0.10;0.10;;;;;;;;;;5008109;28;20264;-71
2021/10/20 13:14:50;;;;;;;0.00;0.00;;;;;;;;;;5005460;28;20206;-72
2021/10/20 13:17:17;;;;;;;0.10;0.10;;;;;;;;;;5002235;28;20204;-70
2021/10/20 13:19:44;;;;;;;0.10;0.10;;;;;;;;;;4997518;28;20210;-71
2021/10/20 13:22:10;;;;;;;0.10;0.10;;;;;;;;;;5016997;28;20278;-70
2021/10/20 13:24:36;;;;;;;0.05;0.05;;;;;;;;;;5005461;28;20467;-70
2021/10/20 13:27:03;;;;;;;0.00;0.00;;;;;;;;;;4997017;28;20206;-70
2021/10/20 13:29:29;;;;;;;0.10;0.10;;;;;;;;;;4991043;28;20206;-71
2021/10/20 13:31:56;;;;;;;0.10;0.10;;;;;;;;;;4990151;28;20203;-71
2021/10/20 13:34:24;;;;;;;0.17;0.17;;;;;;;;;;4985742;28;20242;-71
2021/10/20 13:36:50;;;;;;;0.03;0.03;;;;;;;;;;4998916;28;20530;-64
2021/10/20 13:39:17;;;;;;;0.00;0.00;;;;;;;;;;4985299;28;20207;-65
2021/10/20 13:41:43;;;;;;;0.10;0.10;;;;;;;;;;4999111;28;20386;-66
2021/10/20 13:44:10;;;;;;;0.10;0.10;;;;;;;;;;4985429;28;20452;-66
2021/10/20 13:46:36;;;;;;;10.52;0.95;;;;;;;;;;4985319;28;20265;-66
2021/10/20 13:49:04;;;;;;;0.10;0.10;;;;;;;;;;4991261;28;20203;-66
2021/10/20 13:51:31;;;;;;;0.10;0.10;;;;;;;;;;4992575;28;20213;-67
2021/10/20 13:53:58;;;;;;;0.10;0.10;;;;;;;;;;5008190;28;20249;-66
2021/10/20 13:56:24;;;;;;;0.00;0.00;;;;;;;;;;5003114;28;20215;-67
2021/10/20 13:58:50;;;;;;;0.40;0.40;;;;;;;;;;4987954;28;20436;-66
2021/10/20 14:01:17;;;;;;;0.00;0.00;;;;;;;;;;4995925;28;20247;-66
2021/10/20 14:03:43;;;;;;;0.00;0.00;;;;;;;;;;4998636;28;20232;-66
2021/10/20 14:06:11;;;;;;;0.10;0.10;;;;;;;;;;4984732;28;20215;-66
2021/10/20 14:08:38;;;;;;;0.10;0.10;;;;;;;;;;4985008;28;20247;-66
2021/10/20 14:11:05;;;;;;;0.10;0.10;;;;;;;;;;4990073;28;20276;-65
2021/10/20 14:13:31;;;;;;;0.10;0.10;;;;;;;;;;4993036;28;20231;-65
2021/10/20 14:15:57;;;;;;;0.10;0.10;;;;;;;;;;4991888;28;20207;-65
2021/10/20 14:18:25;;;;;;;0.05;0.05;;;;;;;;;;4984807;28;20207;-65
2021/10/20 14:20:51;;;;;;;0.00;0.00;;;;;;;;;;4984437;28;20209;-66
2021/10/20 14:23:18;;;;;;;0.10;0.10;;;;;;;;;;4984672;28;20519;-66
2021/10/20 14:25:45;;;;;;;0.75;0.70;;;;;;;;;;4984651;28;20230;-66
2021/10/20 14:28:12;;;;;;;0.00;0.00;;;;;;;;;;4984793;28;20466;-66
2021/10/20 14:30:38;;;;;;;0.10;0.10;;;;;;;;;;4984296;28;20473;-67
2021/10/20 14:33:04;;;;;;;0.00;0.00;;;;;;;;;;5002031;28;20270;-66
2021/10/20 14:35:31;;;;;;;0.73;0.73;;;;;;;;;;4991393;28;20200;-65
2021/10/20 14:37:57;;;;;;;0.00;0.00;;;;;;;;;;5003498;28;20213;-65
2021/10/20 14:40:23;;;;;;;0.10;0.10;;;;;;;;;;4985081;28;20216;-66
2021/10/20 14:42:51;;;;;;;0.10;0.10;;;;;;;;;;4995096;28;20232;-65